Time;durP1;ratioP1;P1;durP2;ratioP2;P2;SDS_P1;SDS_P2;PMS_P1;PMS_P2;Temp;Humidity;BMP_temperature;BMP_pressure;BME280_temperature;BME280_humidity;BME280_pressure;Samples;Min_cycle;Max_cycle;Signal;HPM_P1;HPM_P2
2020/12/12 00:00:32;;;;;;;94.05;48.88;;;5.10;99.90;;;;;;4924472;29;20032;-87
2020/12/12 00:03:01;;;;;;;93.80;50.63;;;5.00;99.90;;;;;;4925946;29;20043;-89
2020/12/12 00:05:46;;;;;;;;;;;;;;;;;;;;;
2020/12/12 00:08:14;;;;;;;;;;;5.00;99.90;;;;;;4927895;29;20131;-87
2020/12/12 00:10:52;;;;;;;128.45;58.95;;;5.00;99.90;;;;;;4941192;29;20010;-89
2020/12/12 00:14:18;;;;;;;;;;;;;;;;;;;;;
2020/12/12 00:17:02;;;;;;;112.55;54.30;;;5.00;99.90;;;;;;4868166;29;20125;-88
2020/12/12 00:19:27;;;;;;;137.32;59.38;;;5.00;99.90;;;;;;4868329;29;20049;-89
2020/12/12 00:21:57;;;;;;;106.65;52.00;;;5.00;99.90;;;;;;4919366;29;20036;-89
2020/12/12 00:24:23;;;;;;;109.38;53.30;;;5.10;99.90;;;;;;4939879;29;20027;-88
2020/12/12 00:26:54;;;;;;;94.57;50.03;;;5.00;99.90;;;;;;4922323;29;20465;-87
2020/12/12 00:29:20;;;;;;;104.70;51.40;;;5.10;99.90;;;;;;4923695;29;20488;-87
2020/12/12 00:31:46;;;;;;;94.35;50.30;;;5.10;99.90;;;;;;4938800;29;20024;-87
2020/12/12 00:34:12;;;;;;;136.85;59.92;;;5.10;99.90;;;;;;4906508;29;20040;-87
2020/12/12 00:36:40;;;;;;;118.47;53.97;;;5.10;99.90;;;;;;4921260;29;20466;-86
2020/12/12 00:39:09;;;;;;;111.40;53.30;;;5.10;99.90;;;;;;4924441;29;20039;-87
2020/12/12 00:41:43;;;;;;;113.32;50.70;;;5.10;99.90;;;;;;4940607;29;20036;-87
2020/12/12 00:44:09;;;;;;;128.87;57.70;;;5.10;99.90;;;;;;4934926;29;20067;-88
2020/12/12 00:46:39;;;;;;;149.73;62.00;;;5.00;99.90;;;;;;4928833;29;20295;-89
2020/12/12 00:49:08;;;;;;;158.45;65.80;;;5.00;99.90;;;;;;4923520;29;20036;-89
2020/12/12 00:51:34;;;;;;;145.30;59.70;;;5.00;99.90;;;;;;4919503;29;20060;-87
2020/12/12 00:54:03;;;;;;;165.00;66.47;;;5.00;99.90;;;;;;4925836;29;20028;-87
2020/12/12 00:56:29;;;;;;;139.30;60.22;;;4.90;99.90;;;;;;4926021;29;20027;-87
2020/12/12 00:59:00;;;;;;;151.25;64.00;;;5.00;99.90;;;;;;4942985;29;20035;-88
2020/12/12 01:01:26;;;;;;;122.60;53.53;;;5.00;99.90;;;;;;4925108;29;20359;-86
2020/12/12 01:04:02;;;;;;;;;;;;;;;;;;;;;
2020/12/12 01:06:33;;;;;;;158.45;65.18;;;4.90;99.90;;;;;;4942026;29;20040;-85
2020/12/12 01:08:59;;;;;;;130.32;59.85;;;5.00;99.90;;;;;;4925191;29;20032;-86
2020/12/12 01:11:25;;;;;;;157.40;65.20;;;5.00;99.90;;;;;;4924790;29;20027;-87
2020/12/12 01:13:50;;;;;;;118.97;54.50;;;5.00;99.90;;;;;;4909264;29;20032;-86
2020/12/12 01:16:16;;;;;;;131.98;56.15;;;5.00;99.90;;;;;;4910834;29;20573;-86
2020/12/12 01:18:42;;;;;;;125.55;53.60;;;5.00;99.90;;;;;;4926510;29;20393;-87
2020/12/12 01:21:15;;;;;;;185.52;71.30;;;5.00;99.90;;;;;;4908377;29;20040;-87
2020/12/12 01:23:41;;;;;;;164.75;64.78;;;5.00;99.90;;;;;;4925667;29;20366;-87
2020/12/12 01:26:07;;;;;;;135.55;58.85;;;5.00;99.90;;;;;;4925832;29;20030;-86
2020/12/12 01:28:36;;;;;;;124.85;57.55;;;5.10;99.90;;;;;;4930473;29;20039;-92
2020/12/12 01:31:08;;;;;;;160.00;63.95;;;5.00;99.90;;;;;;4939616;29;20034;-87
2020/12/12 01:33:33;;;;;;;170.95;66.07;;;5.10;99.90;;;;;;4926473;29;20043;-86
2020/12/12 01:36:01;;;;;;;121.22;55.25;;;5.00;99.90;;;;;;4941615;29;20027;-86
2020/12/12 01:38:29;;;;;;;104.72;50.72;;;5.10;99.90;;;;;;4958168;29;20118;-87
2020/12/12 01:40:57;;;;;;;106.35;52.33;;;5.10;99.90;;;;;;4926220;29;20046;-88
2020/12/12 01:43:23;;;;;;;149.25;60.80;;;5.10;99.90;;;;;;4944082;29;20012;-88
2020/12/12 01:45:49;;;;;;;165.40;64.68;;;5.20;99.90;;;;;;4946247;29;20042;-88
2020/12/12 01:48:15;;;;;;;91.50;48.28;;;5.20;99.90;;;;;;4930943;28;20020;-86
2020/12/12 01:50:43;;;;;;;107.78;51.35;;;5.20;99.90;;;;;;4946227;29;20039;-91
2020/12/12 01:53:10;;;;;;;144.90;57.17;;;5.20;99.90;;;;;;4939503;29;20062;-86
2020/12/12 01:55:36;;;;;;;225.25;75.85;;;5.10;99.90;;;;;;4937729;29;20051;-89
2020/12/12 01:58:02;;;;;;;169.32;65.18;;;5.10;99.90;;;;;;4941865;29;20039;-88
2020/12/12 02:00:32;;;;;;;113.65;53.47;;;5.10;99.90;;;;;;4962387;29;20036;-87
2020/12/12 02:03:05;;;;;;;209.38;71.85;;;5.10;99.90;;;;;;4930788;29;20028;-89
2020/12/12 02:05:43;;;;;;;117.88;54.15;;;5.10;99.90;;;;;;4945438;29;20024;-87
2020/12/12 02:08:11;;;;;;;142.60;57.17;;;5.20;99.90;;;;;;4953926;29;20035;-87
2020/12/12 02:10:40;;;;;;;177.77;68.22;;;5.10;99.90;;;;;;4938386;29;20038;-87
2020/12/12 02:13:07;;;;;;;119.15;53.35;;;5.10;99.90;;;;;;4928311;29;20020;-86
2020/12/12 02:15:37;;;;;;;116.63;53.13;;;5.20;99.90;;;;;;4945686;29;20100;-88
2020/12/12 02:18:08;;;;;;;123.22;53.45;;;5.20;99.90;;;;;;4946177;29;20023;-88
2020/12/12 02:20:44;;;;;;;113.65;52.03;;;5.20;99.90;;;;;;4946039;29;20031;-87
2020/12/12 02:23:17;;;;;;;211.20;69.55;;;5.20;99.90;;;;;;4942817;29;20107;-86
2020/12/12 02:25:45;;;;;;;241.55;75.65;;;5.20;99.90;;;;;;4943521;29;20019;-90
2020/12/12 02:28:17;;;;;;;227.15;72.07;;;5.20;99.90;;;;;;4938169;29;20039;-87
2020/12/12 02:30:48;;;;;;;179.75;64.25;;;5.10;99.90;;;;;;4931822;29;20024;-89
2020/12/12 02:33:16;;;;;;;146.95;58.40;;;5.10;99.90;;;;;;4925423;29;20111;-87
2020/12/12 02:35:45;;;;;;;125.43;50.63;;;5.10;99.90;;;;;;4923404;29;20083;-87
2020/12/12 02:38:14;;;;;;;165.98;60.60;;;5.20;99.90;;;;;;4907957;29;20123;-86
2020/12/12 02:40:43;;;;;;;187.82;66.63;;;5.20;99.90;;;;;;4923851;29;20031;-87
2020/12/12 02:43:16;;;;;;;247.70;75.13;;;5.20;99.90;;;;;;4907645;29;20032;-88
2020/12/12 02:45:53;;;;;;;120.78;53.53;;;5.20;99.90;;;;;;4922735;29;20024;-86
2020/12/12 02:48:18;;;;;;;129.45;53.53;;;5.20;99.90;;;;;;4922847;29;20103;-87
2020/12/12 02:50:45;;;;;;;148.07;56.80;;;5.20;99.90;;;;;;4919936;29;20483;-87
2020/12/12 02:53:16;;;;;;;179.85;60.72;;;5.20;99.90;;;;;;4907960;29;20054;-87
2020/12/12 02:55:42;;;;;;;139.00;55.42;;;5.30;99.90;;;;;;4893659;29;20108;-93
2020/12/12 02:58:10;;;;;;;221.95;69.10;;;5.30;99.90;;;;;;4922869;29;20039;-88
2020/12/12 03:00:36;;;;;;;247.00;72.82;;;5.20;99.90;;;;;;4922848;29;20032;-87
2020/12/12 03:03:04;;;;;;;159.60;57.88;;;5.30;99.90;;;;;;4924549;29;20570;-87
2020/12/12 03:05:30;;;;;;;243.38;72.93;;;5.30;99.90;;;;;;4922610;29;20027;-87
2020/12/12 03:07:56;;;;;;;285.20;80.25;;;5.20;99.90;;;;;;4907084;29;20031;-88
2020/12/12 03:10:24;;;;;;;154.88;56.28;;;5.30;99.90;;;;;;4922886;29;20019;-87
2020/12/12 03:12:52;;;;;;;205.95;66.53;;;5.20;99.90;;;;;;4922001;29;20032;-87
2020/12/12 03:15:20;;;;;;;194.60;62.05;;;5.30;99.90;;;;;;4938865;29;20032;-86
2020/12/12 03:17:48;;;;;;;286.63;80.45;;;5.30;99.90;;;;;;4909918;28;20039;-91
2020/12/12 03:20:18;;;;;;;125.63;52.58;;;5.30;99.90;;;;;;4921175;29;20128;-86
2020/12/12 03:22:44;;;;;;;278.23;75.90;;;5.30;99.90;;;;;;4929172;29;20031;-91
2020/12/12 03:25:12;;;;;;;150.93;56.63;;;5.30;99.90;;;;;;4908407;29;20123;-88
2020/12/12 03:27:39;;;;;;;235.20;68.35;;;5.30;99.90;;;;;;4905838;29;20060;-87
2020/12/12 03:30:06;;;;;;;109.00;50.95;;;5.30;99.90;;;;;;4920805;29;20044;-87
2020/12/12 03:32:36;;;;;;;365.60;90.85;;;5.30;99.90;;;;;;4921596;29;20031;-88
2020/12/12 03:35:03;;;;;;;117.78;51.75;;;5.30;99.90;;;;;;4921554;29;20023;-87
2020/12/12 03:37:33;;;;;;;107.68;48.55;;;5.40;99.90;;;;;;4921880;29;20063;-87
2020/12/12 03:40:04;;;;;;;107.95;48.75;;;5.50;99.90;;;;;;4906561;29;20064;-85
2020/12/12 03:42:33;;;;;;;213.75;66.20;;;5.50;99.90;;;;;;4921284;29;20082;-87
2020/12/12 03:45:03;;;;;;;140.30;51.17;;;5.50;99.90;;;;;;4921333;29;20079;-88
2020/12/12 03:47:28;;;;;;;136.88;51.70;;;5.50;99.90;;;;;;4921219;29;20106;-84
2020/12/12 03:49:54;;;;;;;140.50;51.00;;;5.50;99.90;;;;;;4905110;29;20486;-87
2020/12/12 03:52:21;;;;;;;120.22;49.15;;;5.50;99.90;;;;;;4921378;29;20478;-88
2020/12/12 03:54:47;;;;;;;160.93;57.55;;;5.50;99.90;;;;;;4922119;29;20109;-90
2020/12/12 03:57:13;;;;;;;227.70;72.78;;;5.50;99.90;;;;;;4907671;29;20044;-86
2020/12/12 03:59:38;;;;;;;111.43;46.25;;;5.40;99.90;;;;;;4921873;29;20035;-87
2020/12/12 04:02:04;;;;;;;324.77;84.55;;;5.40;99.90;;;;;;4923093;29;20046;-86
2020/12/12 04:04:33;;;;;;;119.80;46.58;;;5.40;99.90;;;;;;4922341;29;20118;-87
2020/12/12 04:06:59;;;;;;;227.23;70.55;;;5.50;99.90;;;;;;4921142;29;20035;-87
2020/12/12 04:09:24;;;;;;;196.57;64.47;;;5.50;99.90;;;;;;4937746;29;20389;-87
2020/12/12 04:11:52;;;;;;;89.97;43.95;;;5.40;99.90;;;;;;4921168;29;20024;-86
2020/12/12 04:14:18;;;;;;;118.70;47.67;;;5.40;99.90;;;;;;4905891;29;20038;-88
2020/12/12 04:16:47;;;;;;;107.03;47.25;;;5.50;99.90;;;;;;4920979;29;20126;-86
2020/12/12 04:19:14;;;;;;;87.57;42.67;;;5.50;99.90;;;;;;4920425;29;20039;-86
2020/12/12 04:21:41;;;;;;;90.22;44.65;;;5.60;99.90;;;;;;4889617;29;20032;-87
2020/12/12 04:24:07;;;;;;;85.75;42.75;;;5.60;99.90;;;;;;4920934;29;20027;-87
2020/12/12 04:26:35;;;;;;;109.70;49.05;;;5.60;99.90;;;;;;4920578;29;20443;-86
2020/12/12 04:29:01;;;;;;;164.85;58.90;;;5.60;99.90;;;;;;4920815;29;20434;-86
2020/12/12 04:31:29;;;;;;;117.72;51.13;;;5.60;99.90;;;;;;4921203;29;20027;-86
2020/12/12 04:33:58;;;;;;;126.75;52.58;;;5.60;99.90;;;;;;4920805;29;20027;-86
2020/12/12 04:36:26;;;;;;;102.68;46.42;;;5.60;99.90;;;;;;4920655;29;20470;-87
2020/12/12 04:38:52;;;;;;;120.38;52.45;;;5.60;99.90;;;;;;4920696;29;20386;-88
2020/12/12 04:41:18;;;;;;;116.30;50.05;;;5.50;99.90;;;;;;4921033;29;20040;-87
2020/12/12 04:43:44;;;;;;;134.57;54.90;;;5.60;99.90;;;;;;4920772;29;20024;-86
2020/12/12 04:46:12;;;;;;;107.97;46.85;;;5.60;99.90;;;;;;4920495;29;20062;-88
2020/12/12 04:48:42;;;;;;;116.82;50.63;;;5.70;99.90;;;;;;4919900;29;20378;-88
2020/12/12 04:51:07;;;;;;;109.00;50.17;;;5.70;99.90;;;;;;4919866;29;20054;-86
2020/12/12 04:53:34;;;;;;;129.30;52.55;;;5.60;99.90;;;;;;4920647;29;20103;-86
2020/12/12 04:56:03;;;;;;;90.68;42.88;;;5.70;99.90;;;;;;4922736;29;20504;-86
2020/12/12 04:58:33;;;;;;;97.32;46.63;;;5.70;99.90;;;;;;4919750;29;20032;-87
2020/12/12 05:01:04;;;;;;;112.10;48.50;;;5.70;99.90;;;;;;4919728;29;20040;-87
2020/12/12 05:03:37;;;;;;;116.55;50.95;;;5.80;99.90;;;;;;4902294;29;20037;-88
2020/12/12 05:06:03;;;;;;;77.63;40.33;;;5.60;99.90;;;;;;4920508;29;20039;-87
2020/12/12 05:08:29;;;;;;;76.57;38.83;;;5.60;99.90;;;;;;4901002;29;20036;-87
2020/12/12 05:10:55;;;;;;;74.82;38.72;;;5.70;99.90;;;;;;4903128;29;20036;-89
2020/12/12 05:13:25;;;;;;;78.57;40.35;;;5.60;99.90;;;;;;4917075;29;20172;-85
2020/12/12 05:15:52;;;;;;;104.22;46.08;;;5.60;99.90;;;;;;4917875;29;20028;-86
2020/12/12 05:18:19;;;;;;;87.70;43.75;;;5.60;99.90;;;;;;4916631;29;20032;-86
2020/12/12 05:20:46;;;;;;;100.60;44.42;;;5.60;99.90;;;;;;4917612;29;20036;-87
2020/12/12 05:23:16;;;;;;;131.77;52.92;;;5.60;99.90;;;;;;4916993;29;20174;-87
2020/12/12 05:25:47;;;;;;;81.60;42.40;;;5.60;99.90;;;;;;4917148;29;20024;-87
2020/12/12 05:28:18;;;;;;;65.85;37.25;;;5.70;99.90;;;;;;4916163;29;20052;-87
2020/12/12 05:30:49;;;;;;;79.85;40.67;;;5.60;99.90;;;;;;4902712;29;20037;-86
2020/12/12 05:33:24;;;;;;;91.05;44.50;;;5.60;99.90;;;;;;4936486;29;20059;-87
2020/12/12 05:35:51;;;;;;;72.55;38.25;;;5.60;99.90;;;;;;4918203;29;20032;-87
2020/12/12 05:38:19;;;;;;;78.53;38.83;;;5.60;99.90;;;;;;4916820;29;20044;-88
2020/12/12 05:40:55;;;;;;;78.35;40.70;;;5.60;99.90;;;;;;4920749;29;20032;-87
2020/12/12 05:43:35;;;;;;;109.03;47.67;;;5.60;99.90;;;;;;4920100;29;20029;-86
2020/12/12 05:46:23;;;;;;;80.57;41.75;;;5.50;99.90;;;;;;4930407;29;20028;-88
2020/12/12 05:48:52;;;;;;;97.55;44.45;;;5.70;99.90;;;;;;4920982;29;20039;-88
2020/12/12 05:51:27;;;;;;;98.38;44.00;;;5.70;99.90;;;;;;4919876;29;20135;-87
2020/12/12 05:53:54;;;;;;;86.60;44.33;;;5.70;99.90;;;;;;4938884;29;20099;-86
2020/12/12 05:56:24;;;;;;;71.20;36.65;;;5.70;99.90;;;;;;4956114;29;20082;-88
2020/12/12 05:58:52;;;;;;;117.63;48.65;;;5.70;99.90;;;;;;4931129;29;20139;-84
2020/12/12 06:01:24;;;;;;;72.20;34.30;;;5.60;99.90;;;;;;4927210;29;20028;-86
2020/12/12 06:04:06;;;;;;;73.75;40.28;;;5.70;99.90;;;;;;4927285;29;20072;-88
2020/12/12 06:06:42;;;;;;;74.57;36.13;;;5.80;99.90;;;;;;4925854;29;20488;-87
2020/12/12 06:09:13;;;;;;;113.68;43.75;;;5.80;99.90;;;;;;4926318;29;20052;-86
2020/12/12 06:11:44;;;;;;;146.85;51.30;;;5.80;99.90;;;;;;4920653;29;20406;-87
2020/12/12 06:14:10;;;;;;;124.93;46.38;;;5.70;99.90;;;;;;4923265;29;20032;-87
2020/12/12 06:16:36;;;;;;;81.47;37.10;;;5.70;99.90;;;;;;4923381;29;20055;-85
2020/12/12 06:19:09;;;;;;;153.65;51.53;;;5.70;99.90;;;;;;4923919;29;20525;-86
2020/12/12 06:21:39;;;;;;;79.95;39.30;;;5.60;99.90;;;;;;4918727;29;20032;-87
2020/12/12 06:24:09;;;;;;;105.78;42.25;;;5.70;99.90;;;;;;4938615;29;20023;-87
2020/12/12 06:26:48;;;;;;;116.80;44.67;;;5.80;99.90;;;;;;4918517;29;20031;-87
2020/12/12 06:29:19;;;;;;;170.40;56.25;;;5.80;99.90;;;;;;4918364;29;20036;-88
2020/12/12 06:31:50;;;;;;;114.72;41.85;;;5.70;99.90;;;;;;4936471;29;20024;-87
2020/12/12 06:34:16;;;;;;;101.40;41.53;;;5.70;99.90;;;;;;4919386;29;20060;-88
2020/12/12 06:36:51;;;;;;;111.97;43.20;;;5.70;99.90;;;;;;4919069;29;20051;-88
2020/12/12 06:39:26;;;;;;;114.43;41.78;;;5.70;99.90;;;;;;4903691;29;20036;-87
2020/12/12 06:41:57;;;;;;;169.52;51.78;;;5.70;99.90;;;;;;4922554;29;20127;-87
2020/12/12 06:44:29;;;;;;;104.97;43.08;;;5.70;99.90;;;;;;4919193;29;20056;-87
2020/12/12 06:46:55;;;;;;;107.88;40.08;;;5.70;99.90;;;;;;4922713;29;20465;-87
2020/12/12 06:49:21;;;;;;;148.23;47.22;;;5.70;99.90;;;;;;4918484;29;20119;-86
2020/12/12 06:51:49;;;;;;;147.48;48.17;;;5.70;99.90;;;;;;4918206;29;20148;-85
2020/12/12 06:54:17;;;;;;;140.30;46.95;;;5.80;99.90;;;;;;4917870;29;20032;-87
2020/12/12 06:56:42;;;;;;;126.47;44.63;;;5.80;99.90;;;;;;4919037;29;20095;-87
2020/12/12 06:59:28;;;;;;;98.85;38.28;;;5.70;99.90;;;;;;4920430;29;20553;-87
2020/12/12 07:01:59;;;;;;;69.72;34.80;;;5.80;99.90;;;;;;4937714;29;20031;-88
2020/12/12 07:04:30;;;;;;;80.13;34.17;;;5.80;99.90;;;;;;4937620;29;20031;-89
2020/12/12 07:06:59;;;;;;;164.82;49.22;;;5.90;99.90;;;;;;4904536;29;20039;-88
2020/12/12 07:09:28;;;;;;;192.98;54.40;;;5.90;99.90;;;;;;4918069;29;20413;-87
2020/12/12 07:11:56;;;;;;;115.60;43.13;;;5.80;99.90;;;;;;4936668;29;20122;-87
2020/12/12 07:14:23;;;;;;;100.75;39.22;;;5.80;99.90;;;;;;4918776;29;20032;-87
2020/12/12 07:17:03;;;;;;;173.73;51.25;;;5.80;99.90;;;;;;4892945;29;20051;-87
2020/12/12 07:19:35;;;;;;;254.32;64.25;;;5.70;99.90;;;;;;4923867;29;20476;-87
2020/12/12 07:22:06;;;;;;;106.10;39.35;;;5.80;99.90;;;;;;4921790;29;20042;-88
2020/12/12 07:24:32;;;;;;;285.38;66.90;;;5.80;99.90;;;;;;4918469;29;20402;-87
2020/12/12 07:26:59;;;;;;;194.65;56.80;;;5.90;99.90;;;;;;4904477;29;20413;-88
2020/12/12 07:29:25;;;;;;;382.15;82.97;;;5.90;99.90;;;;;;4919763;29;20095;-87
2020/12/12 07:31:55;;;;;;;221.38;56.97;;;5.90;99.90;;;;;;4921248;29;20033;-86
2020/12/12 07:34:23;;;;;;;162.05;47.92;;;5.90;99.90;;;;;;4902294;29;20075;-87
2020/12/12 07:37:00;;;;;;;272.17;65.38;;;5.90;99.90;;;;;;4920559;29;20080;-87
2020/12/12 07:39:29;;;;;;;148.18;46.55;;;5.90;99.90;;;;;;4921643;29;20519;-87
2020/12/12 07:41:57;;;;;;;157.23;50.05;;;5.80;99.90;;;;;;4898454;29;20104;-86
2020/12/12 07:44:23;;;;;;;194.77;57.15;;;5.80;99.90;;;;;;4935921;29;20024;-88
2020/12/12 07:47:03;;;;;;;118.55;43.72;;;5.80;99.90;;;;;;4924127;29;20100;-87
2020/12/12 07:49:30;;;;;;;296.98;68.82;;;5.90;99.90;;;;;;4934264;29;20051;-86
2020/12/12 07:52:01;;;;;;;206.10;57.78;;;6.00;99.90;;;;;;4940669;29;20060;-87
2020/12/12 07:54:36;;;;;;;341.42;73.93;;;5.90;99.90;;;;;;4938852;29;20028;-87
2020/12/12 07:57:03;;;;;;;238.00;62.58;;;5.80;99.90;;;;;;4942973;29;20019;-88
2020/12/12 07:59:30;;;;;;;175.32;52.92;;;5.80;99.90;;;;;;4909746;29;20063;-88
2020/12/12 08:02:09;;;;;;;145.15;48.50;;;5.80;99.90;;;;;;4942533;29;20083;-87
2020/12/12 08:04:36;;;;;;;109.53;43.22;;;5.80;99.90;;;;;;4939476;29;20063;-88
2020/12/12 08:07:20;;;;;;;212.05;60.47;;;5.90;99.90;;;;;;4919537;29;20035;-87
2020/12/12 08:09:51;;;;;;;259.13;75.00;;;5.90;99.90;;;;;;4935190;29;20023;-88
2020/12/12 08:12:28;;;;;;;120.43;44.92;;;5.80;99.90;;;;;;4921526;29;20348;-88
2020/12/12 08:14:54;;;;;;;148.10;48.40;;;5.90;99.90;;;;;;4941730;29;20028;-88
2020/12/12 08:17:19;;;;;;;203.52;62.35;;;5.90;99.90;;;;;;4939722;29;20048;-90
2020/12/12 08:19:49;;;;;;;146.55;52.58;;;5.80;99.90;;;;;;4933779;29;20040;-87
2020/12/12 08:22:21;;;;;;;253.75;71.88;;;5.80;99.90;;;;;;4932846;29;20526;-92
2020/12/12 08:24:48;;;;;;;109.78;47.22;;;5.90;99.90;;;;;;4940103;29;20032;-87
2020/12/12 08:27:23;;;;;;;104.95;46.92;;;5.90;99.90;;;;;;4940001;29;20023;-95
2020/12/12 08:29:58;;;;;;;145.75;54.63;;;5.90;99.90;;;;;;4941693;29;20052;-86
2020/12/12 08:32:41;;;;;;;173.57;58.60;;;6.00;99.90;;;;;;4940326;29;20028;-89
2020/12/12 08:35:22;;;;;;;123.15;50.58;;;6.00;99.90;;;;;;4937954;29;20032;-88
2020/12/12 08:37:54;;;;;;;154.75;49.45;;;6.00;99.90;;;;;;4951457;29;20040;-88
2020/12/12 08:40:23;;;;;;;115.20;45.90;;;6.00;99.90;;;;;;4931590;29;20130;-89
2020/12/12 08:43:06;;;;;;;104.45;44.63;;;6.00;99.90;;;;;;4934131;29;20058;-88
2020/12/12 08:45:36;;;;;;;277.40;74.45;;;6.10;99.90;;;;;;4936747;29;20028;-87
2020/12/12 08:48:15;;;;;;;128.35;48.50;;;6.00;99.90;;;;;;4919710;29;20032;-87
2020/12/12 08:50:59;;;;;;;275.63;72.97;;;6.00;99.90;;;;;;4916544;29;20048;-87
2020/12/12 08:53:38;;;;;;;395.67;91.82;;;6.00;99.90;;;;;;4914649;29;20079;-87
2020/12/12 08:56:22;;;;;;;212.30;65.00;;;6.00;99.90;;;;;;4920078;29;20024;-87
2020/12/12 08:59:36;;;;;;;;;;;;;;;;;;;;;
2020/12/12 09:02:17;;;;;;;145.90;49.58;;;6.10;99.90;;;;;;4937121;29;20039;-88
2020/12/12 09:04:43;;;;;;;329.20;82.95;;;6.10;99.90;;;;;;4900805;29;20100;-86
2020/12/12 09:07:21;;;;;;;106.07;46.75;;;6.10;99.90;;;;;;4916439;29;20028;-87
2020/12/12 09:09:50;;;;;;;105.68;46.88;;;6.10;99.90;;;;;;4934728;29;20040;-87
2020/12/12 09:12:18;;;;;;;190.00;58.22;;;6.20;99.90;;;;;;4916203;29;20489;-88
2020/12/12 09:14:49;;;;;;;139.93;52.20;;;6.20;99.90;;;;;;4906541;29;20028;-88
2020/12/12 09:17:22;;;;;;;343.40;83.63;;;6.20;99.90;;;;;;4942759;29;20032;-87
2020/12/12 09:19:52;;;;;;;147.07;53.95;;;6.20;99.90;;;;;;4922339;29;20036;-88
2020/12/12 09:22:18;;;;;;;422.08;95.90;;;6.10;99.90;;;;;;4923182;29;20147;-88
2020/12/12 09:24:46;;;;;;;116.78;47.53;;;6.10;99.90;;;;;;4905727;29;20051;-86
2020/12/12 09:27:12;;;;;;;97.80;45.92;;;6.10;99.90;;;;;;4919845;29;20032;-87
2020/12/12 09:29:38;;;;;;;211.10;67.80;;;6.20;99.90;;;;;;4921648;29;20063;-87
2020/12/12 09:32:06;;;;;;;241.77;68.57;;;6.30;99.90;;;;;;4925986;29;20042;-87
2020/12/12 09:34:31;;;;;;;216.55;65.85;;;6.30;99.90;;;;;;4920151;29;20071;-89
2020/12/12 09:37:05;;;;;;;168.98;58.13;;;6.40;99.90;;;;;;4921266;29;20446;-86
2020/12/12 09:39:31;;;;;;;107.20;48.90;;;6.40;99.90;;;;;;4920082;29;20411;-88
2020/12/12 09:42:09;;;;;;;137.52;50.45;;;6.40;99.90;;;;;;4909233;29;20359;-88
2020/12/12 09:44:38;;;;;;;324.90;85.60;;;6.40;99.90;;;;;;4903507;29;20020;-87
2020/12/12 09:47:25;;;;;;;;;;;;;;;;;;;;;
2020/12/12 09:49:58;;;;;;;196.85;66.60;;;6.30;99.90;;;;;;4925345;29;20099;-86
2020/12/12 09:52:49;;;;;;;290.10;77.88;;;6.40;99.90;;;;;;4922483;29;20056;-89
2020/12/12 09:55:46;;;;;;;331.17;87.93;;;6.40;99.90;;;;;;4926655;29;20127;-90
2020/12/12 09:58:16;;;;;;;139.95;56.10;;;6.30;99.90;;;;;;4918647;29;20035;-90
2020/12/12 10:00:52;;;;;;;166.00;61.42;;;6.50;99.90;;;;;;4912179;29;20036;-89
2020/12/12 10:03:30;;;;;;;140.77;54.95;;;6.60;99.90;;;;;;4923109;29;20502;-92
2020/12/12 10:06:17;;;;;;;137.70;54.25;;;6.50;99.90;;;;;;4935066;29;20028;-88
2020/12/12 10:08:53;;;;;;;161.50;59.20;;;6.70;99.90;;;;;;4917275;29;20037;-89
2020/12/12 10:11:19;;;;;;;145.68;59.42;;;6.70;99.90;;;;;;4935864;29;20036;-88
2020/12/12 10:13:59;;;;;;;143.98;59.90;;;6.70;99.90;;;;;;4917319;29;20506;-90
2020/12/12 10:16:34;;;;;;;351.50;94.95;;;6.80;99.90;;;;;;4880407;29;20036;-90
2020/12/12 10:19:04;;;;;;;170.15;57.35;;;6.80;99.90;;;;;;4927733;29;20035;-89
2020/12/12 10:21:30;;;;;;;115.10;49.92;;;6.80;99.90;;;;;;4912976;29;20119;-90
2020/12/12 10:24:02;;;;;;;148.90;55.00;;;6.80;99.90;;;;;;4907708;29;20063;-88
2020/12/12 10:26:40;;;;;;;;;;;;;;;;;;;;;
2020/12/12 10:36:12;;;;;;;;;;;;;;;;;;;;;
2020/12/12 10:42:17;;;;;;;;;;;;;;;;;;;;;
2020/12/12 10:44:52;;;;;;;317.05;89.38;;;7.10;99.90;;;;;;4922908;29;20461;-91
2020/12/12 10:47:19;;;;;;;258.50;77.53;;;7.00;99.90;;;;;;4904542;29;20040;-90
2020/12/12 10:49:50;;;;;;;262.90;77.63;;;7.10;99.90;;;;;;4915709;29;20033;-90
2020/12/12 10:52:19;;;;;;;148.48;60.83;;;7.10;99.90;;;;;;4919418;29;20078;-89
2020/12/12 10:54:50;;;;;;;120.25;53.50;;;7.10;99.90;;;;;;4937437;29;20074;-91
2020/12/12 10:57:24;;;;;;;122.32;55.90;;;7.20;99.90;;;;;;4923672;29;20031;-89
2020/12/12 11:00:04;;;;;;;237.70;74.57;;;7.30;99.90;;;;;;4923614;29;20043;-89
2020/12/12 11:02:34;;;;;;;125.70;54.70;;;7.20;99.90;;;;;;4927661;29;20275;-89
2020/12/12 11:05:03;;;;;;;172.00;63.85;;;7.30;99.90;;;;;;4940042;29;20056;-85
2020/12/12 11:07:37;;;;;;;239.57;79.97;;;7.30;99.90;;;;;;4955629;28;20095;-88
2020/12/12 11:10:03;;;;;;;110.53;50.85;;;7.40;99.90;;;;;;4916524;29;20127;-88
2020/12/12 11:12:28;;;;;;;158.75;65.25;;;7.50;99.90;;;;;;4940624;29;20070;-88
2020/12/12 11:14:55;;;;;;;171.32;64.13;;;7.40;99.90;;;;;;4921365;29;20081;-87
2020/12/12 11:17:21;;;;;;;176.95;65.68;;;7.50;99.90;;;;;;4906428;29;20036;-88
2020/12/12 11:19:47;;;;;;;220.10;78.88;;;7.50;99.90;;;;;;4905279;29;20405;-88
2020/12/12 11:22:13;;;;;;;185.40;70.00;;;7.60;99.90;;;;;;4921043;29;20044;-86
2020/12/12 11:24:38;;;;;;;195.20;71.35;;;7.50;99.90;;;;;;4905887;29;20032;-88
2020/12/12 11:27:04;;;;;;;298.08;94.03;;;7.50;99.90;;;;;;4906217;29;20028;-89
2020/12/12 11:29:30;;;;;;;276.42;85.65;;;7.60;99.90;;;;;;4921452;29;20035;-87
2020/12/12 11:31:55;;;;;;;261.00;80.43;;;7.50;99.90;;;;;;4922206;29;20028;-87
2020/12/12 11:34:38;;;;;;;160.50;60.95;;;7.60;99.90;;;;;;4921571;29;20107;-87
2020/12/12 11:40:09;;;;;;;128.40;54.60;;;7.60;99.90;;;;;;4940172;29;20032;-89
2020/12/12 11:42:52;;;;;;;270.63;84.95;;;7.70;99.90;;;;;;4923989;29;20078;-88
2020/12/12 11:48:02;;;;;;;166.27;62.00;;;7.70;99.90;;;;;;4923586;29;20042;-88
2020/12/12 11:50:29;;;;;;;469.08;118.85;;;7.80;99.90;;;;;;4921268;29;20106;-88
2020/12/12 11:52:56;;;;;;;154.73;62.20;;;7.80;99.90;;;;;;4922520;29;20035;-87
2020/12/12 11:55:23;;;;;;;188.27;67.32;;;7.80;99.90;;;;;;4921607;29;20027;-87
2020/12/12 11:57:49;;;;;;;207.27;74.35;;;7.90;99.90;;;;;;4918551;29;20032;-89
2020/12/12 12:00:15;;;;;;;391.90;105.05;;;7.90;99.90;;;;;;4903755;29;20036;-88
2020/12/12 12:02:41;;;;;;;510.52;120.13;;;7.90;99.90;;;;;;4919702;29;20032;-87
2020/12/12 12:05:10;;;;;;;575.80;138.05;;;7.90;99.90;;;;;;4918491;29;20028;-88
2020/12/12 12:07:45;;;;;;;254.05;81.20;;;7.90;99.90;;;;;;4918961;29;20095;-87
2020/12/12 12:12:56;;;;;;;337.42;92.00;;;7.90;99.90;;;;;;4922938;29;20127;-89
2020/12/12 12:15:22;;;;;;;;;;;8.00;99.90;;;;;;4918797;29;20127;-88
2020/12/12 12:17:48;;;;;;;197.98;72.05;;;8.10;99.90;;;;;;4919375;29;19915;-88
2020/12/12 12:20:23;;;;;;;450.83;118.15;;;8.10;99.90;;;;;;4918177;29;20032;-88
2020/12/12 12:22:51;;;;;;;394.38;105.70;;;8.10;99.90;;;;;;4920970;29;20040;-86
2020/12/12 12:25:20;;;;;;;398.85;110.30;;;8.10;99.90;;;;;;4921966;29;20028;-87
2020/12/12 12:28:02;;;;;;;441.38;117.18;;;8.20;99.90;;;;;;4921957;29;20059;-88
2020/12/12 12:30:28;;;;;;;214.35;69.88;;;8.20;99.90;;;;;;4907217;29;20474;-86
2020/12/12 12:32:54;;;;;;;166.77;64.70;;;8.20;99.90;;;;;;4918999;29;20051;-85
2020/12/12 12:35:19;;;;;;;286.73;90.32;;;8.20;99.90;;;;;;4919133;29;20451;-87
2020/12/12 12:37:45;;;;;;;285.88;90.57;;;8.30;99.90;;;;;;4921112;29;20024;-87
2020/12/12 12:40:11;;;;;;;270.40;82.35;;;8.20;99.90;;;;;;4918009;29;20036;-88
2020/12/12 12:42:36;;;;;;;321.15;91.68;;;8.20;99.90;;;;;;4903054;29;20036;-86
2020/12/12 12:45:02;;;;;;;298.55;90.13;;;8.20;99.90;;;;;;4889016;29;20084;-87
2020/12/12 12:47:28;;;;;;;1311.20;193.15;;;8.30;99.90;;;;;;4916258;29;20095;-86
2020/12/12 12:49:56;;;;;;;156.55;65.75;;;8.40;99.90;;;;;;4905979;29;20455;-86
2020/12/12 12:52:22;;;;;;;172.43;65.75;;;8.40;99.90;;;;;;4904346;29;20059;-89
2020/12/12 12:54:48;;;;;;;214.27;73.45;;;8.50;99.90;;;;;;4921400;29;20040;-87
2020/12/12 12:57:18;;;;;;;186.80;68.90;;;8.60;99.90;;;;;;4923736;29;20024;-87
2020/12/12 12:59:44;;;;;;;209.70;71.07;;;8.60;99.90;;;;;;4924195;29;20032;-86
2020/12/12 13:02:10;;;;;;;323.73;91.97;;;8.60;99.90;;;;;;4924564;29;20047;-87
2020/12/12 13:04:39;;;;;;;240.00;78.85;;;8.60;99.90;;;;;;4908103;29;20497;-89
2020/12/12 13:07:07;;;;;;;283.17;84.78;;;8.60;99.90;;;;;;4923754;29;20169;-87
2020/12/12 13:09:37;;;;;;;248.38;81.22;;;8.60;99.90;;;;;;4923447;29;20504;-88
2020/12/12 13:12:08;;;;;;;294.33;87.00;;;8.70;99.90;;;;;;4924038;29;20035;-88